Pagrindinis puslapis
METAR-TAF:

METAR-TAF

Oro uostai :

Bukareštas, Rumunija

platuma: 44-33N, ilguma: 026-06E, Aukštis: 95 m

Dabartinis oras

Ataskaita buvo paskelbta 33 minutes, ne 11:00 UTC
Vėjas 11 kt iš Vakarų/Pietvakarių, svyruoja nuo Pietvakarių ir Vakarų/Šiaurės Vakarų
Temperatūra 24°C
Drėgmė 44%
Slėgis 1008 hPa
Matomumas 10 km arba daugiau
nėra debesų žemiau 1500 m ir nėra kamuolinių lietaus debesų

METAR: LROP 041100Z 25011KT 230V290 CAVOK 24/11 Q1008 NOSIG

Laikas: 14:33 (11:33 UTC)

Prognozė

Ataskaita buvo paskelbta 6 valandos ir 33 minutes, ne 05:00 UTC
Prognozė galioja nuo 04 metu 06 UTC su 05 metu 06 UTC
Vėjas 10 kt iš Vakarų
Matomumas 10 km arba daugiau
nėra debesų žemiau 1500 m ir nėra kamuolinių lietaus debesų

TAF: LROP 040500Z 0406/0506 26010KT CAVOK

Orai ataskaitas ir orų prognozės (METAR, TAF).

turimą stotys yra geltonos ir raudonos taškus žemėlapyje.

Perkelti pele per norėdami pamatyti stoties vardą.

Tada spustelėkite, norėdami matyti oro stebėjimo ir prognozės.

Norėdami pakeisti žemėlapį: spustelėkite ant žalios mygtukų su juodo kryžiaus žemyn,; žalią mygtuką su brūkšneliu, jei norite nutolinti; arba žalių rodyklių gretimoms žemėlapius.


METAR-TAF: